createdAt,value
2019-01-31T00:00:34.104Z,2.92
2019-01-31T00:03:33.128Z,3.00
2019-01-31T00:06:11.337Z,3.30
2019-01-31T00:09:21.653Z,3.22
2019-01-31T00:12:16.989Z,3.22
2019-01-31T00:19:01.513Z,4.42
2019-01-31T00:22:04.800Z,3.60
2019-01-31T00:28:38.558Z,3.90
2019-01-31T00:32:02.701Z,4.75
2019-01-31T00:35:21.431Z,9.08
2019-01-31T00:38:17.828Z,6.03
2019-01-31T00:41:10.170Z,12.35
2019-01-31T00:44:34.120Z,16.80
2019-01-31T00:47:26.449Z,11.83
2019-01-31T00:50:27.524Z,12.25
2019-01-31T00:53:18.092Z,9.93
2019-01-31T00:56:28.854Z,11.22
2019-01-31T00:59:18.909Z,13.32
2019-01-31T01:02:15.534Z,8.25
2019-01-31T01:04:54.022Z,9.25
2019-01-31T01:07:51.343Z,5.90
2019-01-31T01:10:44.408Z,6.90
2019-01-31T01:13:40.625Z,4.15
2019-01-31T01:16:33.085Z,5.47
2019-01-31T01:19:22.861Z,5.05
2019-01-31T01:22:35.374Z,4.30
2019-01-31T01:25:33.300Z,4.90
2019-01-31T01:28:38.085Z,3.72
2019-01-31T01:31:21.789Z,5.08
2019-01-31T01:34:42.524Z,4.83
2019-01-31T01:38:00.581Z,5.65
2019-01-31T01:40:40.656Z,5.67
2019-01-31T01:43:32.511Z,5.33
2019-01-31T01:46:37.890Z,5.17
2019-01-31T01:49:24.762Z,8.15
2019-01-31T01:52:23.957Z,7.08
2019-01-31T01:55:17.712Z,4.87
2019-01-31T01:58:31.570Z,5.20
2019-01-31T02:01:44.816Z,6.42
2019-01-31T02:04:53.701Z,7.05
2019-01-31T02:07:53.506Z,3.60
2019-01-31T02:10:49.348Z,4.78
2019-01-31T02:13:51.088Z,4.85
2019-01-31T02:17:04.293Z,5.78
2019-01-31T02:20:10.369Z,4.58
2019-01-31T02:23:03.865Z,4.47
2019-01-31T02:25:42.865Z,3.80
2019-01-31T02:28:23.710Z,4.03
2019-01-31T02:31:15.894Z,3.33
2019-01-31T02:34:00.444Z,3.62
2019-01-31T02:36:56.785Z,3.47
2019-01-31T02:40:04.025Z,4.00
2019-01-31T02:42:48.311Z,4.00
2019-01-31T02:45:45.160Z,4.08
2019-01-31T02:48:33.253Z,4.37
2019-01-31T02:51:37.932Z,4.50
2019-01-31T02:54:18.373Z,6.37
2019-01-31T02:57:29.721Z,12.07
2019-01-31T03:00:26.226Z,9.68
2019-01-31T03:03:48.854Z,9.73
2019-01-31T03:06:57.832Z,9.48
2019-01-31T03:09:55.237Z,7.60
2019-01-31T03:12:40.320Z,3.87
2019-01-31T03:15:27.150Z,4.80
2019-01-31T03:18:17.016Z,4.85
2019-01-31T03:21:27.594Z,4.55
2019-01-31T03:24:13.600Z,3.20
2019-01-31T03:26:58.022Z,3.50
2019-01-31T03:29:54.896Z,3.70
2019-01-31T03:32:41.303Z,3.83
2019-01-31T03:35:40.200Z,3.50
2019-01-31T03:38:19.053Z,7.00
2019-01-31T03:41:27.357Z,4.90
2019-01-31T03:44:19.332Z,4.05
2019-01-31T03:47:16.818Z,4.78
2019-01-31T03:50:14.438Z,4.30
2019-01-31T03:53:10.841Z,4.08
2019-01-31T03:56:07.093Z,3.40
2019-01-31T03:58:59.936Z,3.75
2019-01-31T04:02:14.902Z,3.85
2019-01-31T04:04:59.831Z,3.15
2019-01-31T04:07:26.868Z,3.45
2019-01-31T04:09:54.136Z,3.58
2019-01-31T04:12:20.985Z,3.83
2019-01-31T04:14:47.801Z,3.65
2019-01-31T04:17:14.714Z,3.42
2019-01-31T04:19:41.536Z,3.85
2019-01-31T04:22:08.566Z,3.90
2019-01-31T04:24:35.399Z,4.70
2019-01-31T04:27:02.295Z,4.05
2019-01-31T04:29:29.217Z,5.00
2019-01-31T04:31:56.245Z,4.05
2019-01-31T04:34:23.481Z,4.50
2019-01-31T04:36:50.670Z,5.37
2019-01-31T04:39:17.480Z,6.10
2019-01-31T04:41:44.403Z,5.90
2019-01-31T04:44:11.213Z,6.00
2019-01-31T04:46:38.024Z,6.83
2019-01-31T04:49:05.215Z,7.45
2019-01-31T04:51:32.137Z,4.72
2019-01-31T04:53:58.950Z,5.00
2019-01-31T04:56:25.974Z,5.12
2019-01-31T04:58:52.768Z,4.45
2019-01-31T05:01:19.936Z,5.47
2019-01-31T05:03:46.858Z,5.00
2019-01-31T05:06:14.027Z,5.40
2019-01-31T05:08:40.937Z,5.97
2019-01-31T05:11:08.129Z,4.45
2019-01-31T05:13:35.212Z,5.40
2019-01-31T05:16:03.635Z,6.10
2019-01-31T05:18:30.969Z,10.13
2019-01-31T05:20:57.769Z,6.35
2019-01-31T05:23:24.838Z,6.80
2019-01-31T05:25:51.646Z,5.35
2019-01-31T05:28:18.573Z,9.55
2019-01-31T05:30:45.672Z,6.40
2019-01-31T05:33:12.601Z,6.45
2019-01-31T05:35:39.649Z,8.65
2019-01-31T05:38:06.753Z,6.95
2019-01-31T05:40:33.837Z,11.53
2019-01-31T05:43:00.932Z,9.20
2019-01-31T05:45:27.862Z,8.50
2019-01-31T05:47:54.687Z,7.05
2019-01-31T05:50:21.890Z,9.30
2019-01-31T05:52:48.982Z,16.37
2019-01-31T05:55:15.902Z,10.90
2019-01-31T05:57:43.133Z,6.28
2019-01-31T06:00:13.721Z,5.22
2019-01-31T06:02:40.538Z,4.83
2019-01-31T06:05:08.027Z,5.67
2019-01-31T06:07:34.834Z,7.62
2019-01-31T06:10:02.034Z,9.55
2019-01-31T06:12:28.844Z,12.58
2019-01-31T06:14:55.937Z,13.65
2019-01-31T06:17:22.850Z,8.70
2019-01-31T06:19:49.681Z,7.87
2019-01-31T06:22:16.868Z,5.80
2019-01-31T06:24:43.805Z,4.20
2019-01-31T06:27:10.725Z,15.75
2019-01-31T06:29:37.649Z,17.23
2019-01-31T06:32:04.817Z,13.62
2019-01-31T06:34:31.644Z,22.30
2019-01-31T06:36:58.469Z,27.15
2019-01-31T06:39:25.545Z,24.32
2019-01-31T06:41:52.829Z,14.33
2019-01-31T06:44:19.660Z,25.17
2019-01-31T06:46:46.552Z,21.35
2019-01-31T06:49:13.729Z,11.88
2019-01-31T06:51:40.988Z,23.73
2019-01-31T06:54:07.911Z,26.40
2019-01-31T06:56:34.825Z,14.58
2019-01-31T06:59:01.650Z,6.58
2019-01-31T07:01:28.460Z,5.12
2019-01-31T07:03:55.374Z,5.05
2019-01-31T07:06:22.327Z,3.67
2019-01-31T07:08:53.614Z,3.87
2019-01-31T07:11:29.560Z,5.85
2019-01-31T07:13:49.336Z,10.38
2019-01-31T07:16:16.157Z,6.25
2019-01-31T07:18:43.225Z,5.00
2019-01-31T07:21:10.041Z,4.87
2019-01-31T07:23:37.209Z,5.08
2019-01-31T07:26:04.233Z,5.03
2019-01-31T07:28:31.239Z,5.05
2019-01-31T07:30:58.540Z,6.58
2019-01-31T07:33:25.554Z,4.62
2019-01-31T07:35:52.474Z,5.70
2019-01-31T07:38:19.499Z,5.80
2019-01-31T07:40:46.604Z,5.12
2019-01-31T07:43:13.514Z,5.62
2019-01-31T07:45:40.450Z,5.40
2019-01-31T07:48:07.609Z,5.33
2019-01-31T07:50:34.626Z,6.30
2019-01-31T07:53:01.899Z,5.85
2019-01-31T07:55:29.004Z,6.35
2019-01-31T07:57:55.813Z,6.90
2019-01-31T08:00:23.033Z,6.90
2019-01-31T08:02:50.056Z,9.40
2019-01-31T08:05:18.857Z,11.10
2019-01-31T08:07:46.417Z,11.22
2019-01-31T08:10:15.882Z,16.90
2019-01-31T08:12:42.801Z,13.85
2019-01-31T08:15:11.500Z,14.25
2019-01-31T08:17:38.572Z,13.32
2019-01-31T08:20:05.917Z,8.55
2019-01-31T08:22:32.850Z,11.28
2019-01-31T08:24:59.864Z,8.48
2019-01-31T08:27:26.789Z,9.93
2019-01-31T08:29:53.716Z,7.90
2019-01-31T08:32:20.539Z,9.63
2019-01-31T08:34:47.707Z,11.12
2019-01-31T08:37:14.641Z,7.67
2019-01-31T08:39:41.458Z,8.03
2019-01-31T08:42:08.385Z,8.90
2019-01-31T08:44:35.193Z,6.65
2019-01-31T08:47:02.014Z,10.40
2019-01-31T08:49:29.108Z,11.70
2019-01-31T08:51:56.237Z,10.78
2019-01-31T08:54:23.332Z,7.12
2019-01-31T08:56:50.357Z,6.85
2019-01-31T08:59:17.521Z,6.22
2019-01-31T09:01:44.434Z,5.80
2019-01-31T09:04:11.270Z,5.33
2019-01-31T09:06:38.192Z,5.97
2019-01-31T09:09:09.153Z,5.25
2019-01-31T09:11:36.070Z,4.60
2019-01-31T09:14:03.101Z,4.90
2019-01-31T09:16:30.108Z,8.53
2019-01-31T09:18:57.449Z,12.47
2019-01-31T09:21:49.985Z,10.93
2019-01-31T09:24:37.781Z,9.03
2019-01-31T09:27:37.137Z,8.03
2019-01-31T09:30:20.653Z,5.70
2019-01-31T09:32:58.608Z,6.65
2019-01-31T09:35:52.108Z,5.15
2019-01-31T09:39:08.910Z,4.90
2019-01-31T09:41:43.830Z,4.70
2019-01-31T09:44:39.405Z,4.90
2019-01-31T09:47:43.590Z,5.00
2019-01-31T09:50:34.513Z,4.80
2019-01-31T09:53:42.210Z,4.50
2019-01-31T09:56:40.538Z,5.15
2019-01-31T09:59:33.714Z,4.17
2019-01-31T10:02:45.209Z,4.25
2019-01-31T10:05:37.801Z,4.05
2019-01-31T10:08:33.977Z,4.65
2019-01-31T10:11:25.036Z,4.30
2019-01-31T10:14:39.219Z,4.03
2019-01-31T10:17:52.648Z,4.17
2019-01-31T10:20:49.588Z,4.92
2019-01-31T10:23:34.390Z,4.30
2019-01-31T10:26:44.158Z,9.95
2019-01-31T10:29:34.572Z,5.20
2019-01-31T10:32:42.177Z,4.55
2019-01-31T10:35:46.685Z,6.17
2019-01-31T10:39:01.606Z,4.85
2019-01-31T10:41:48.773Z,4.00
2019-01-31T10:44:38.392Z,3.17
2019-01-31T10:47:38.457Z,3.58
2019-01-31T10:50:52.296Z,3.10
2019-01-31T10:53:49.640Z,3.00
2019-01-31T10:56:58.809Z,2.60
2019-01-31T10:59:56.276Z,3.00
2019-01-31T11:02:57.896Z,2.95
2019-01-31T11:05:34.955Z,3.12
2019-01-31T11:09:05.549Z,2.60
2019-01-31T11:11:53.921Z,2.15
2019-01-31T11:15:00.038Z,3.00
2019-01-31T11:18:04.959Z,2.80
2019-01-31T11:20:52.392Z,2.47
2019-01-31T11:23:35.225Z,2.70
2019-01-31T11:26:34.109Z,2.65
2019-01-31T11:29:43.073Z,2.85
2019-01-31T11:32:39.109Z,2.30
2019-01-31T11:35:36.973Z,2.60
2019-01-31T11:38:17.277Z,2.50
2019-01-31T11:41:06.570Z,4.00
2019-01-31T11:43:59.142Z,3.55
2019-01-31T11:47:12.604Z,2.83
2019-01-31T11:50:29.580Z,2.85
2019-01-31T11:53:22.297Z,2.92
2019-01-31T11:56:28.533Z,3.08
2019-01-31T11:59:00.917Z,3.10
2019-01-31T12:01:28.120Z,3.65
2019-01-31T12:04:04.951Z,2.80
2019-01-31T12:06:32.171Z,3.67
2019-01-31T12:08:59.198Z,3.90
2019-01-31T12:11:26.719Z,3.85
2019-01-31T12:13:54.029Z,3.52
2019-01-31T12:16:21.042Z,3.50
2019-01-31T12:18:48.265Z,3.42
2019-01-31T12:21:15.312Z,3.80
2019-01-31T12:23:42.546Z,3.67
2019-01-31T12:26:09.566Z,3.95
2019-01-31T12:28:36.592Z,3.35
2019-01-31T12:31:03.809Z,3.80
2019-01-31T12:33:31.171Z,3.40
2019-01-31T12:35:58.434Z,3.10
2019-01-31T12:38:36.270Z,3.70
2019-01-31T12:40:54.183Z,3.67
2019-01-31T12:43:21.113Z,3.70
2019-01-31T12:45:47.929Z,3.42
2019-01-31T12:48:14.965Z,3.55
2019-01-31T12:50:41.969Z,4.30
2019-01-31T12:53:08.910Z,3.60
2019-01-31T12:55:35.924Z,3.27
2019-01-31T12:58:03.479Z,3.60
2019-01-31T13:00:30.559Z,3.70
2019-01-31T13:02:57.722Z,3.50
2019-01-31T13:05:25.505Z,4.10
2019-01-31T13:07:52.821Z,4.22
2019-01-31T13:10:19.859Z,5.25
2019-01-31T13:12:48.809Z,4.75
2019-01-31T13:15:16.565Z,3.58
2019-01-31T13:17:43.664Z,4.10
2019-01-31T13:20:16.259Z,4.78
2019-01-31T13:22:43.520Z,4.65
2019-01-31T13:25:11.005Z,4.03
2019-01-31T13:27:38.037Z,3.87
2019-01-31T13:30:06.448Z,3.83
2019-01-31T13:32:33.378Z,4.50
2019-01-31T13:35:00.201Z,4.00
2019-01-31T13:37:27.121Z,4.12
2019-01-31T13:39:54.317Z,3.92
2019-01-31T13:42:21.698Z,4.60
2019-01-31T13:44:48.533Z,3.55
2019-01-31T13:47:15.830Z,4.00
2019-01-31T13:49:43.117Z,4.10
2019-01-31T13:52:10.225Z,4.08
2019-01-31T13:54:37.514Z,4.37
2019-01-31T13:57:04.550Z,4.10
2019-01-31T13:59:31.520Z,4.30
2019-01-31T14:01:58.444Z,4.30
2019-01-31T14:04:25.440Z,4.42
2019-01-31T14:06:52.624Z,4.85
2019-01-31T14:09:19.920Z,3.90
2019-01-31T14:11:46.845Z,4.37
2019-01-31T14:14:13.669Z,4.20
2019-01-31T14:16:47.207Z,4.30
2019-01-31T14:19:09.489Z,4.33
2019-01-31T14:21:36.316Z,4.15
2019-01-31T14:24:03.509Z,4.05
2019-01-31T14:26:30.604Z,4.53
2019-01-31T14:28:57.413Z,4.17
2019-01-31T14:31:24.505Z,4.10
2019-01-31T14:33:51.311Z,4.30
2019-01-31T14:36:18.642Z,3.62
2019-01-31T14:38:45.730Z,3.72
2019-01-31T14:41:12.554Z,3.80
2019-01-31T14:43:39.489Z,3.87
2019-01-31T14:46:06.701Z,4.72
2019-01-31T14:48:33.621Z,4.33
2019-01-31T14:51:00.765Z,3.90
2019-01-31T14:53:27.674Z,3.85
2019-01-31T14:55:55.527Z,4.87
2019-01-31T14:58:22.998Z,5.10
2019-01-31T15:00:50.080Z,4.62
2019-01-31T15:03:17.274Z,4.62
2019-01-31T15:05:44.105Z,4.20
2019-01-31T15:08:11.120Z,5.78
2019-01-31T15:10:38.144Z,6.33
2019-01-31T15:13:05.419Z,5.92
2019-01-31T15:15:32.438Z,5.62
2019-01-31T15:17:59.460Z,5.70
2019-01-31T15:20:38.388Z,6.33
2019-01-31T15:23:05.858Z,6.67
2019-01-31T15:25:32.881Z,4.87
2019-01-31T15:27:59.916Z,4.72
2019-01-31T15:30:29.882Z,5.17
2019-01-31T15:32:57.571Z,4.87
2019-01-31T15:35:25.002Z,5.05
2019-01-31T15:37:52.290Z,4.62
2019-01-31T15:40:21.885Z,5.20
2019-01-31T15:42:49.192Z,4.25
2019-01-31T15:45:16.348Z,7.22
2019-01-31T15:47:43.690Z,9.35
2019-01-31T15:50:12.219Z,12.37
2019-01-31T15:52:39.829Z,14.85
2019-01-31T15:55:10.248Z,17.77
2019-01-31T15:57:37.373Z,19.52
2019-01-31T16:00:12.037Z,16.45
2019-01-31T16:02:39.350Z,16.12
2019-01-31T16:05:06.885Z,17.50
2019-01-31T16:07:33.909Z,19.07
2019-01-31T16:10:00.762Z,16.67
2019-01-31T16:12:27.778Z,16.57
2019-01-31T16:14:55.275Z,20.50
2019-01-31T16:17:22.603Z,19.57
2019-01-31T16:19:50.249Z,21.10
2019-01-31T16:22:17.933Z,16.65
2019-01-31T16:24:45.319Z,11.75
2019-01-31T16:27:12.241Z,9.88
2019-01-31T16:29:39.176Z,7.85
2019-01-31T16:32:06.249Z,8.35
2019-01-31T16:34:33.469Z,7.40
2019-01-31T16:37:00.405Z,8.40
2019-01-31T16:39:27.338Z,9.95
2019-01-31T16:41:54.458Z,10.50
2019-01-31T16:44:21.738Z,18.62
2019-01-31T16:46:48.769Z,16.40
2019-01-31T16:49:16.109Z,13.60
2019-01-31T16:51:45.403Z,14.07
2019-01-31T16:54:12.318Z,14.30
2019-01-31T16:56:39.135Z,20.77
2019-01-31T16:59:06.178Z,18.92
2019-01-31T17:01:33.186Z,10.25
2019-01-31T17:04:00.287Z,11.48
2019-01-31T17:06:27.139Z,15.90
2019-01-31T17:08:54.157Z,20.15
2019-01-31T17:11:21.700Z,11.63
2019-01-31T17:13:48.792Z,12.53
2019-01-31T17:16:15.849Z,11.20
2019-01-31T17:18:43.412Z,10.63
2019-01-31T17:21:10.346Z,8.98
2019-01-31T17:23:37.884Z,12.33
2019-01-31T17:26:05.260Z,33.28
2019-01-31T17:28:32.725Z,23.18
2019-01-31T17:30:59.921Z,12.45
2019-01-31T17:33:26.745Z,13.22
2019-01-31T17:35:53.913Z,16.57
2019-01-31T17:38:21.123Z,20.30
2019-01-31T17:40:48.533Z,20.23
2019-01-31T17:43:15.582Z,16.75
2019-01-31T17:45:42.604Z,18.80
2019-01-31T17:48:13.105Z,26.12
2019-01-31T17:50:40.215Z,26.55
2019-01-31T17:53:07.478Z,24.07
2019-01-31T17:55:34.521Z,24.72
2019-01-31T17:58:01.457Z,21.85
2019-01-31T18:00:36.360Z,16.07
2019-01-31T18:03:04.645Z,19.02
2019-01-31T18:05:31.875Z,18.90
2019-01-31T18:07:58.901Z,20.37
2019-01-31T18:10:25.930Z,13.55
2019-01-31T18:12:52.941Z,12.15
2019-01-31T18:15:20.126Z,17.75
2019-01-31T18:17:47.069Z,17.92
2019-01-31T18:20:16.199Z,11.28
2019-01-31T18:22:43.510Z,8.80
2019-01-31T18:25:10.796Z,18.25
2019-01-31T18:27:37.722Z,15.18
2019-01-31T18:30:07.676Z,11.75
2019-01-31T18:32:34.798Z,11.50
2019-01-31T18:35:04.770Z,10.65
2019-01-31T18:37:32.044Z,12.60
2019-01-31T18:39:59.162Z,16.27
2019-01-31T18:42:26.022Z,16.90
2019-01-31T18:44:53.101Z,18.67
2019-01-31T18:47:20.023Z,18.90
2019-01-31T18:49:47.053Z,15.75
2019-01-31T18:52:13.874Z,11.22
2019-01-31T18:54:40.818Z,11.15
2019-01-31T18:57:07.889Z,9.73
2019-01-31T18:59:34.721Z,9.58
2019-01-31T19:02:02.342Z,9.00
2019-01-31T19:04:30.001Z,8.88
2019-01-31T19:06:57.276Z,14.80
2019-01-31T19:09:24.623Z,16.05
2019-01-31T19:11:51.845Z,15.13
2019-01-31T19:14:21.523Z,16.75
2019-01-31T19:16:48.354Z,17.27
2019-01-31T19:19:15.606Z,15.80
2019-01-31T19:21:43.281Z,13.55
2019-01-31T19:24:10.255Z,12.88
2019-01-31T19:26:37.355Z,10.55
2019-01-31T19:29:04.847Z,9.70
2019-01-31T19:31:32.588Z,10.75
2019-01-31T19:33:59.514Z,12.00
2019-01-31T19:36:26.892Z,13.68
2019-01-31T19:38:53.837Z,12.28
2019-01-31T19:41:20.781Z,12.50
2019-01-31T19:43:48.310Z,12.47
2019-01-31T19:46:16.812Z,12.65
2019-01-31T19:48:44.277Z,14.75
2019-01-31T19:51:11.584Z,15.90
2019-01-31T19:53:38.666Z,13.95
2019-01-31T19:56:06.252Z,15.10
2019-01-31T19:58:33.280Z,13.50
2019-01-31T20:01:00.577Z,12.65
2019-01-31T20:03:27.754Z,16.87
2019-01-31T20:05:54.776Z,14.35
2019-01-31T20:08:21.873Z,14.70
2019-01-31T20:10:48.962Z,11.20
2019-01-31T20:13:15.979Z,11.75
2019-01-31T20:15:43.023Z,12.60
2019-01-31T20:18:10.177Z,12.20
2019-01-31T20:20:37.473Z,9.75
2019-01-31T20:23:05.553Z,10.70
2019-01-31T20:25:32.671Z,12.10
2019-01-31T20:27:59.938Z,11.12
2019-01-31T20:30:28.612Z,12.65
2019-01-31T20:32:56.682Z,12.75
2019-01-31T20:35:23.913Z,13.72
2019-01-31T20:37:51.249Z,14.95
2019-01-31T20:40:20.934Z,11.48
2019-01-31T20:42:47.963Z,10.32
2019-01-31T20:45:15.900Z,9.63
2019-01-31T20:47:43.466Z,10.20
2019-01-31T20:50:13.570Z,10.80
2019-01-31T20:52:40.725Z,11.43
2019-01-31T20:55:09.816Z,10.72
2019-01-31T20:57:36.850Z,11.05
2019-01-31T21:00:07.404Z,14.28
2019-01-31T21:02:35.008Z,16.80
2019-01-31T21:05:01.933Z,13.88
2019-01-31T21:07:29.287Z,10.72
2019-01-31T21:09:56.453Z,9.65
2019-01-31T21:12:23.618Z,9.45
2019-01-31T21:14:50.905Z,12.05
2019-01-31T21:17:18.290Z,10.78
2019-01-31T21:19:45.115Z,11.20
2019-01-31T21:22:12.362Z,10.20
2019-01-31T21:24:39.164Z,10.38
2019-01-31T21:27:06.270Z,11.10
2019-01-31T21:29:33.328Z,11.53
2019-01-31T21:32:00.568Z,10.45
2019-01-31T21:34:27.757Z,9.83
2019-01-31T21:36:54.717Z,9.03
2019-01-31T21:39:21.533Z,9.33
2019-01-31T21:41:48.866Z,9.55
2019-01-31T21:44:16.050Z,9.03
2019-01-31T21:46:43.621Z,8.30
2019-01-31T21:49:10.668Z,7.35
2019-01-31T21:51:37.808Z,11.35
2019-01-31T21:54:05.166Z,12.23
2019-01-31T21:56:32.253Z,16.02
2019-01-31T21:58:59.938Z,16.50
2019-01-31T22:01:26.913Z,14.60
2019-01-31T22:03:53.987Z,12.90
2019-01-31T22:06:22.724Z,9.23
2019-01-31T22:08:49.713Z,8.30
2019-01-31T22:11:16.657Z,7.62
2019-01-31T22:13:43.609Z,9.03
2019-01-31T22:16:10.420Z,7.90
2019-01-31T22:18:37.902Z,9.68
2019-01-31T22:21:05.041Z,10.20
2019-01-31T22:23:31.994Z,10.53
2019-01-31T22:25:59.139Z,9.60
2019-01-31T22:28:26.318Z,8.00
2019-01-31T22:30:53.404Z,8.65
2019-01-31T22:33:20.424Z,7.87
2019-01-31T22:35:47.687Z,7.95
2019-01-31T22:38:14.608Z,6.78
2019-01-31T22:40:41.545Z,7.17
2019-01-31T22:43:08.714Z,6.62
2019-01-31T22:45:35.850Z,7.00
2019-01-31T22:48:05.033Z,7.20
2019-01-31T22:50:31.960Z,6.90
2019-01-31T22:52:59.457Z,5.90
2019-01-31T22:55:26.384Z,6.92
2019-01-31T22:57:53.622Z,6.50
2019-01-31T23:00:29.746Z,7.03
2019-01-31T23:02:56.757Z,7.17
2019-01-31T23:05:24.060Z,7.12
2019-01-31T23:07:51.722Z,7.92
2019-01-31T23:10:18.899Z,7.42
2019-01-31T23:12:46.053Z,8.23
2019-01-31T23:15:13.083Z,7.20
2019-01-31T23:17:39.993Z,6.90
2019-01-31T23:20:09.093Z,7.67
2019-01-31T23:22:36.360Z,7.20
2019-01-31T23:25:04.909Z,8.03
2019-01-31T23:27:32.227Z,7.10
2019-01-31T23:29:59.319Z,6.95
2019-01-31T23:32:26.229Z,8.00
2019-01-31T23:34:53.298Z,11.83
2019-01-31T23:37:20.505Z,11.78
2019-01-31T23:39:47.429Z,10.55
2019-01-31T23:42:14.358Z,11.50
2019-01-31T23:44:41.261Z,12.05
2019-01-31T23:47:08.584Z,9.10
2019-01-31T23:49:35.423Z,9.50
2019-01-31T23:52:02.450Z,9.15
2019-01-31T23:54:29.654Z,10.13
2019-01-31T23:56:56.477Z,9.75
2019-01-31T23:59:23.285Z,9.85
